Observation data for Seagraves on 12/09/2018      Previous  Date  Next       Current Mesonet Observations  Soil Data  Daily Summary Page  Observations in Plain Language
KSGV 090600Z 01002KT M03/M03 A303 RMK A01 T10271028  RH  099%=      5-min Rain = 0
KSGV 090605Z 01001KT M03/M03 A303 RMK A01 T10251027  RH  100%=      5-min Rain = 0
KSGV 090610Z 01001KT M03/M03 A303 RMK A01 T10301032  RH  099%=      5-min Rain = 0
KSGV 090615Z 01002KT M03/M03 A3029 RMK A01 T10301032  RH  099%=      5-min Rain = 0
KSGV 090620Z 01002KT M03/M03 A3029 RMK A01 T10311033  RH  099%=      5-min Rain = 0
KSGV 090625Z 02002KT M03/M03 A3029 RMK A01 T10301032  RH  099%=      5-min Rain = 0
KSGV 090630Z 02001KT M03/M03 A3029 RMK A01 T10281030  RH  099%=      5-min Rain = 0
KSGV 090635Z 02002KT M03/M03 A3029 RMK A01 T10311032  RH  099%=      5-min Rain = 0
KSGV 090640Z 02002KT M03/M04 A3029 RMK A01 T10331035  RH  099%=      5-min Rain = 0
KSGV 090645Z 02001KT M04/M04 A3029 RMK A01 T10371039  RH  099%=      5-min Rain = 0
KSGV 090650Z 00000KT M03/M04 A3029 RMK A01 T10341036  RH  099%=      5-min Rain = 0
KSGV 090655Z 01001KT M03/M03 A3028 RMK A01 T10301032  RH  100%=      5-min Rain = 0
KSGV 090700Z 01001KT M03/M03 A3028 RMK A01 T10321034  RH  099%=      5-min Rain = 0
KSGV 090705Z 01000KT M03/M04 A3028 RMK A01 T10341036  RH  099%=      5-min Rain = 0
KSGV 090710Z 35001KT M03/M03 A3028 RMK A01 T10321033  RH  099%=      5-min Rain = 0
KSGV 090715Z 34001KT M03/M03 A3028 RMK A01 T10311032  RH  100%=      5-min Rain = 0
KSGV 090720Z 29001KT M03/M03 A3028 RMK A01 T10301031  RH  100%=      5-min Rain = 0
KSGV 090725Z 29002KT M03/M03 A3028 RMK A01 T10311032  RH  100%=      5-min Rain = 0
KSGV 090730Z 28002KT M03/M03 A3028 RMK A01 T10331034  RH  099%=      5-min Rain = 0
KSGV 090735Z 28002KT M03/M04 A3028 RMK A01 T10341035  RH  099%=      5-min Rain = 0
KSGV 090740Z 30002KT M03/M04 A3028 RMK A01 T10341035  RH  099%=      5-min Rain = 0
KSGV 090745Z 30003KT M04/M04 A3028 RMK A01 T10361038  RH  099%=      5-min Rain = 0
KSGV 090750Z 30003KT M04/M04 A3028 RMK A01 T10381040  RH  099%=      5-min Rain = 0
KSGV 090755Z 32003KT M04/M04 A3028 RMK A01 T10381040  RH  099%=      5-min Rain = 0
KSGV 090800Z 33003KT M04/M04 A3028 RMK A01 T10401042  RH  099%=      5-min Rain = 0
KSGV 090805Z 33003KT M04/M04 A3027 RMK A01 T10401042  RH  099%=      5-min Rain = 0
KSGV 090810Z 33004KT M04/M04 A3027 RMK A01 T10411042  RH  099%=      5-min Rain = 0
KSGV 090815Z 33004KT M04/M04 A3027 RMK A01 T10401042  RH  099%=      5-min Rain = 0
KSGV 090820Z 33004KT M04/M04 A3027 RMK A01 T10411043  RH  099%=      5-min Rain = 0
KSGV 090825Z 32005KT M04/M04 A3028 RMK A01 T10421044  RH  099%=      5-min Rain = 0
KSGV 090830Z 32004KT M04/M04 A3028 RMK A01 T10431044  RH  099%=      5-min Rain = 0
KSGV 090835Z 33003KT M04/M04 A3028 RMK A01 T10421044  RH  099%=      5-min Rain = 0
KSGV 090840Z 34004KT M04/M04 A3027 RMK A01 T10391040  RH  099%=      5-min Rain = 0
KSGV 090845Z 34004KT M04/M04 A3027 RMK A01 T10391041  RH  099%=      5-min Rain = 0
KSGV 090850Z 34003KT M04/M04 A3027 RMK A01 T10381040  RH  099%=      5-min Rain = 0
KSGV 090855Z 34003KT M04/M04 A3027 RMK A01 T10361038  RH  099%=      5-min Rain = 0
KSGV 090900Z 34003KT M04/M04 A3028 RMK A01 T10361039  RH  099%=      5-min Rain = 0
KSGV 090905Z 35004KT M04/M04 A3027 RMK A01 T10361038  RH  099%=      5-min Rain = 0
KSGV 090910Z 34004KT M04/M04 A3027 RMK A01 T10371040  RH  099%=      5-min Rain = 0
KSGV 090915Z 34004KT M04/M04 A3027 RMK A01 T10381041  RH  099%=      5-min Rain = 0
KSGV 090920Z 34003KT M04/M04 A3027 RMK A01 T10381041  RH  099%=      5-min Rain = 0
KSGV 090925Z 33003KT M04/M04 A3027 RMK A01 T10381041  RH  099%=      5-min Rain = 0
KSGV 090930Z 32004KT M04/M04 A3028 RMK A01 T10401043  RH  098%=      5-min Rain = 0
KSGV 090935Z 32004KT M04/M04 A3028 RMK A01 T10411044  RH  098%=      5-min Rain = 0
KSGV 090940Z 32004KT M04/M05 A3028 RMK A01 T10431046  RH  098%=      5-min Rain = 0
KSGV 090945Z 33003KT M05/M05 A3028 RMK A01 T10451048  RH  098%=      5-min Rain = 0
KSGV 090950Z 33003KT M05/M05 A3028 RMK A01 T10461050  RH  098%=      5-min Rain = 0
KSGV 090955Z 32003KT M05/M05 A3028 RMK A01 T10461049  RH  098%=      5-min Rain = 0
KSGV 091000Z 30003KT M05/M05 A3028 RMK A01 T10461049  RH  098%=      5-min Rain = 0
KSGV 091005Z 30003KT M04/M05 A3028 RMK A01 T10441048  RH  098%=      5-min Rain = 0
KSGV 091010Z 31004KT M05/M05 A3028 RMK A01 T10451048  RH  098%=      5-min Rain = 0
KSGV 091015Z 33003KT M04/M05 A3028 RMK A01 T10441048  RH  098%=      5-min Rain = 0
KSGV 091020Z 34003KT M05/M05 A3028 RMK A01 T10451049  RH  097%=      5-min Rain = 0
KSGV 091025Z 35004KT M05/M05 A3028 RMK A01 T10461050  RH  097%=      5-min Rain = 0
KSGV 091030Z 33005KT M04/M05 A3028 RMK A01 T10431047  RH  098%=      5-min Rain = 0
KSGV 091035Z 33004KT M04/M04 A3028 RMK A01 T10401044  RH  098%=      5-min Rain = 0
KSGV 091040Z 33003KT M04/M04 A3028 RMK A01 T10401043  RH  098%=      5-min Rain = 0
KSGV 091045Z 33002KT M04/M04 A3027 RMK A01 T10401044  RH  097%=      5-min Rain = 0
KSGV 091050Z 34002KT M04/M04 A3028 RMK A01 T10401044  RH  097%=      5-min Rain = 0
KSGV 091055Z 35002KT M04/M04 A3027 RMK A01 T10401044  RH  097%=      5-min Rain = 0
KSGV 091100Z 35002KT M04/M05 A3027 RMK A01 T10411045  RH  097%=      5-min Rain = 0
KSGV 091105Z 33002KT M04/M04 A3027 RMK A01 T10401044  RH  097%=      5-min Rain = 0
KSGV 091110Z 30002KT M04/M04 A3028 RMK A01 T10391042  RH  098%=      5-min Rain = 0
KSGV 091115Z 29002KT M04/M04 A3028 RMK A01 T10371041  RH  098%=      5-min Rain = 0
KSGV 091120Z 33002KT M04/M04 A3028 RMK A01 T10361040  RH  098%=      5-min Rain = 0
KSGV 091125Z 35003KT M03/M04 A3028 RMK A01 T10341038  RH  098%=      5-min Rain = 0
KSGV 091130Z 35003KT M03/M04 A3029 RMK A01 T10321036  RH  098%=      5-min Rain = 0
KSGV 091135Z 34003KT M03/M03 A3029 RMK A01 T10271031  RH  098%=      5-min Rain = 0
KSGV 091140Z 34003KT M03/M03 A3029 RMK A01 T10251028  RH  098%=      5-min Rain = 0
KSGV 091145Z 33003KT M02/M03 A303 RMK A01 T10231027  RH  098%=      5-min Rain = 0
KSGV 091150Z 33003KT M02/M03 A303 RMK A01 T10221026  RH  098%=      5-min Rain = 0
KSGV 091155Z 34003KT M02/M03 A303 RMK A01 T10211025  RH  098%=      5-min Rain = 0
KSGV 091200Z 34004KT M02/M02 A303 RMK A01 T10201024  RH  098%=      5-min Rain = 0
KSGV 091205Z 34004KT M02/M02 A303 RMK A01 T10191024  RH  097%=      5-min Rain = 0
KSGV 091210Z 34004KT M02/M03 A303 RMK A01 T10191025  RH  097%=      5-min Rain = 0
KSGV 091215Z 34003KT M02/M02 A303 RMK A01 T10191024  RH  097%=      5-min Rain = 0
KSGV 091220Z 35003KT M02/M02 A303 RMK A01 T10181024  RH  097%=      5-min Rain = 0
KSGV 091225Z 33003KT M02/M02 A3031 RMK A01 T10181023  RH  097%=      5-min Rain = 0
KSGV 091230Z 33003KT M02/M02 A3031 RMK A01 T10171022  RH  097%=      5-min Rain = 0
KSGV 091235Z 33003KT M02/M02 A3031 RMK A01 T10161022  RH  097%=      5-min Rain = 0
KSGV 091240Z 33003KT M02/M02 A3031 RMK A01 T10161021  RH  097%=      5-min Rain = 0
KSGV 091245Z 34003KT M02/M02 A3031 RMK A01 T10151020  RH  097%=      5-min Rain = 0
KSGV 091250Z 34003KT M01/M02 A3031 RMK A01 T10141020  RH  097%=      5-min Rain = 0
KSGV 091255Z 33003KT M01/M02 A3032 RMK A01 T10131019  RH  097%=      5-min Rain = 0
KSGV 091300Z 32003KT M01/M02 A3032 RMK A01 T10131018  RH  097%=      5-min Rain = 0
KSGV 091305Z 33003KT M01/M02 A3032 RMK A01 T10121018  RH  097%=      5-min Rain = 0
KSGV 091310Z 32002KT M01/M02 A3032 RMK A01 T10121017  RH  097%=      5-min Rain = 0
KSGV 091315Z 32002KT M01/M02 A3032 RMK A01 T10111017  RH  097%=      5-min Rain = 0
KSGV 091320Z 32002KT M01/M02 A3033 RMK A01 T10111016  RH  097%=      5-min Rain = 0
KSGV 091325Z 34002KT M01/M02 A3033 RMK A01 T10101016  RH  097%=      5-min Rain = 0
KSGV 091330Z 35001KT M01/M02 A3033 RMK A01 T10101016  RH  097%=      5-min Rain = 0
KSGV 091335Z 35002KT M01/M02 A3033 RMK A01 T10101015  RH  097%=      5-min Rain = 0
KSGV 091340Z 35001KT M01/M02 A3033 RMK A01 T10101015  RH  097%=      5-min Rain = 0
KSGV 091345Z 36001KT M01/M02 A3034 RMK A01 T10101015  RH  097%=      5-min Rain = 0
KSGV 091350Z 00001KT M01/M02 A3034 RMK A01 T10091015  RH  097%=      5-min Rain = 0
KSGV 091355Z 00001KT M01/M01 A3034 RMK A01 T10091014  RH  097%=      5-min Rain = 0
KSGV 091400Z 35001KT M01/M01 A3034 RMK A01 T10091014  RH  097%=      5-min Rain = 0
KSGV 091405Z 33000KT M01/M01 A3034 RMK A01 T10081013  RH  097%=      5-min Rain = 0
KSGV 091410Z 33000KT M01/M01 A3034 RMK A01 T10081013  RH  097%=      5-min Rain = 0
KSGV 091415Z 33001KT M01/M01 A3035 RMK A01 T10071012  RH  097%=      5-min Rain = 0
KSGV 091420Z 33001KT M01/M01 A3035 RMK A01 T10071012  RH  097%=      5-min Rain = 0
KSGV 091425Z 33000KT M01/M01 A3035 RMK A01 T10071012  RH  097%=      5-min Rain = 0
KSGV 091430Z 33000KT M01/M01 A3035 RMK A01 T10071012  RH  097%=      5-min Rain = 0
KSGV 091435Z 31001KT M01/M01 A3036 RMK A01 T10061011  RH  097%=      5-min Rain = 0
KSGV 091440Z 32002KT M01/M01 A3036 RMK A01 T10061011  RH  097%=      5-min Rain = 0
KSGV 091445Z 34002KT M01/M01 A3036 RMK A01 T10051010  RH  097%=      5-min Rain = 0
KSGV 091450Z 35002KT M01/M01 A3036 RMK A01 T10051010  RH  097%=      5-min Rain = 0
KSGV 091455Z 35002KT M00/M01 A3036 RMK A01 T10041010  RH  097%=      5-min Rain = 0
KSGV 091500Z 34002KT M00/M01 A3037 RMK A01 T10041009  RH  097%=      5-min Rain = 0
KSGV 091505Z 34002KT M00/M01 A3037 RMK A01 T10031008  RH  097%=      5-min Rain = 0
KSGV 091510Z 34002KT M00/M01 A3036 RMK A01 T10021008  RH  097%=      5-min Rain = 0
KSGV 091515Z 34002KT 00/01 A3037 RMK A01 T00-000-6  RH  097%=      5-min Rain = 0
KSGV 091520Z 33003KT 00/M01 A3037 RMK A01 T00011006  RH  096%=      5-min Rain = 0
KSGV 091525Z 33002KT 00/M01 A3037 RMK A01 T00011006  RH  096%=      5-min Rain = 0
KSGV 091530Z 33003KT 00/M01 A3038 RMK A01 T00021006  RH  095%=      5-min Rain = 0
KSGV 091535Z 33003KT 00/M01 A3038 RMK A01 T00031005  RH  095%=      5-min Rain = 0
KSGV 091540Z 33002KT 00/M01 A3038 RMK A01 T00041005  RH  094%=      5-min Rain = 0
KSGV 091545Z 32002KT 01/M00 A3038 RMK A01 T00061004  RH  094%=      5-min Rain = 0
KSGV 091550Z 33002KT 01/M00 A3039 RMK A01 T00091001  RH  094%=      5-min Rain = 0
KSGV 091555Z 34002KT 01/M00 A3039 RMK A01 T00101002  RH  093%=      5-min Rain = 0
KSGV 091600Z 34002KT 01/00 A3039 RMK A01 T00120001  RH  093%=      5-min Rain = 0
KSGV 091605Z 35002KT 01/00 A3039 RMK A01 T001300-0  RH  092%=      5-min Rain = 0
KSGV 091610Z 34002KT 01/M00 A3039 RMK A01 T00131001  RH  091%=      5-min Rain = 0
KSGV 091615Z 33003KT 02/00 A3039 RMK A01 T00170002  RH  091%=      5-min Rain = 0
KSGV 091620Z 34004KT 02/01 A3039 RMK A01 T00200005  RH  091%=      5-min Rain = 0
KSGV 091625Z 35004KT 02/00 A3039 RMK A01 T00220004  RH  089%=      5-min Rain = 0
KSGV 091630Z 35004KT 02/00 A3039 RMK A01 T00240003  RH  087%=      5-min Rain = 0
KSGV 091635Z 35004KT 03/00 A3039 RMK A01 T00270002  RH  085%=      5-min Rain = 0
KSGV 091640Z 36003KT 03/00 A3039 RMK A01 T00290002  RH  083%=      5-min Rain = 0
KSGV 091645Z 34002KT 03/00 A3039 RMK A01 T00310001  RH  082%=      5-min Rain = 0
KSGV 091650Z 34002KT 03/M00 A3039 RMK A01 T00321002  RH  080%=      5-min Rain = 0
KSGV 091655Z 33002KT 03/M00 A3039 RMK A01 T00341003  RH  078%=      5-min Rain = 0
KSGV 091700Z 30001KT 04/M00 A3039 RMK A01 T00361003  RH  077%=      5-min Rain = 0
KSGV 091705Z 31002KT 04/M00 A3039 RMK A01 T00361002  RH  077%=      5-min Rain = 0
KSGV 091710Z 34002KT 04/00 A3039 RMK A01 T003900-0  RH  077%=      5-min Rain = 0
KSGV 091715Z 31002KT 04/M00 A3039 RMK A01 T00391003  RH  075%=      5-min Rain = 0
KSGV 091720Z 31002KT 04/M00 A3039 RMK A01 T00391003  RH  075%=      5-min Rain = 0
KSGV 091725Z 33002KT 04/M00 A3039 RMK A01 T00401001  RH  075%=      5-min Rain = 0
KSGV 091730Z 32003KT 04/00 A3038 RMK A01 T00420001  RH  075%=      5-min Rain = 0
KSGV 091735Z 31003KT 04/00 A3038 RMK A01 T00440004  RH  076%=      5-min Rain = 0
KSGV 091740Z 31003KT 04/00 A3038 RMK A01 T00440004  RH  076%=      5-min Rain = 0
KSGV 091745Z 00003KT 05/01 A3038 RMK A01 T00490009  RH  076%=      5-min Rain = 0
KSGV 091750Z 00001KT 05/01 A3038 RMK A01 T00500005  RH  073%=      5-min Rain = 0
KSGV 091755Z 32002KT 05/01 A3038 RMK A01 T00490006  RH  075%=      5-min Rain = 0
KSGV 091800Z 02002KT 05/01 A3038 RMK A01 T00480007  RH  076%=      5-min Rain = 0
KSGV 091805Z 36003KT 05/01 A3038 RMK A01 T00510009  RH  075%=      5-min Rain = 0
KSGV 091810Z 35003KT 05/01 A3038 RMK A01 T00510006  RH  074%=      5-min Rain = 0
KSGV 091815Z 02002KT 05/01 A3037 RMK A01 T00490006  RH  074%=      5-min Rain = 0
KSGV 091820Z 04003KT 05/01 A3037 RMK A01 T00510009  RH  076%=      5-min Rain = 0
KSGV 091825Z 02003KT 06/01 A3037 RMK A01 T00550011  RH  074%=      5-min Rain = 0
KSGV 091830Z 36003KT 05/01 A3036 RMK A01 T00540007  RH  073%=      5-min Rain = 0
KSGV 091835Z 31002KT 05/01 A3036 RMK A01 T00500006  RH  074%=      5-min Rain = 0
KSGV 091840Z 23001KT 06/01 A3036 RMK A01 T00550008  RH  073%=      5-min Rain = 0
KSGV 091845Z 32002KT 06/01 A3035 RMK A01 T00580008  RH  071%=      5-min Rain = 0
KSGV 091850Z 29002KT 06/01 A3035 RMK A01 T00600008  RH  070%=      5-min Rain = 0
KSGV 091855Z 00001KT 06/01 A3035 RMK A01 T00610009  RH  070%=      5-min Rain = 0
KSGV 091900Z 32002KT 07/01 A3035 RMK A01 T00650011  RH  069%=      5-min Rain = 0
KSGV 091905Z 33003KT 06/01 A3035 RMK A01 T00620010  RH  070%=      5-min Rain = 0
KSGV 091910Z 32002KT 06/01 A3035 RMK A01 T00560006  RH  071%=      5-min Rain = 0
KSGV 091915Z 30002KT 05/01 A3035 RMK A01 T00530007  RH  073%=      5-min Rain = 0
KSGV 091920Z 27001KT 06/01 A3034 RMK A01 T00560009  RH  073%=      5-min Rain = 0
KSGV 091925Z 23001KT 07/01 A3034 RMK A01 T00660011  RH  069%=      5-min Rain = 0
KSGV 091930Z 06001KT 07/01 A3034 RMK A01 T00730012  RH  066%=      5-min Rain = 0
KSGV 091935Z 23001KT 07/01 A3034 RMK A01 T00740014  RH  066%=      5-min Rain = 0
KSGV 091940Z 21002KT 08/01 A3034 RMK A01 T00750011  RH  065%=      5-min Rain = 0
KSGV 091945Z 31003KT 07/01 A3034 RMK A01 T00740013  RH  066%=      5-min Rain = 0
KSGV 091950Z 01003KT 07/01 A3033 RMK A01 T00690012  RH  068%=      5-min Rain = 0
KSGV 091955Z 03003KT 07/01 A3033 RMK A01 T00660011  RH  068%=      5-min Rain = 0
KSGV 092000Z 02002KT 06/01 A3033 RMK A01 T00610007  RH  069%=      5-min Rain = 0
KSGV 092005Z 34002KT 06/01 A3033 RMK A01 T00590006  RH  069%=      5-min Rain = 0
KSGV 092010Z 06002KT 06/01 A3033 RMK A01 T00620006  RH  068%=      5-min Rain = 0
KSGV 092015Z 08002KT 06/01 A3033 RMK A01 T00620006  RH  068%=      5-min Rain = 0
KSGV 092020Z 10002KT 06/01 A3033 RMK A01 T00620007  RH  069%=      5-min Rain = 0
KSGV 092025Z 08002KT 07/01 A3033 RMK A01 T00670008  RH  067%=      5-min Rain = 0
KSGV 092030Z 10002KT 06/01 A3033 RMK A01 T00640006  RH  067%=      5-min Rain = 0
KSGV 092035Z 13001KT 07/01 A3033 RMK A01 T00650006  RH  067%=      5-min Rain = 0
KSGV 092040Z 16002KT 07/01 A3033 RMK A01 T00730008  RH  064%=      5-min Rain = 0
KSGV 092045Z 12002KT 07/01 A3032 RMK A01 T00730006  RH  063%=      5-min Rain = 0
KSGV 092050Z 09002KT 08/01 A3032 RMK A01 T00750007  RH  063%=      5-min Rain = 0
KSGV 092055Z 13001KT 08/01 A3032 RMK A01 T00820012  RH  062%=      5-min Rain = 0
KSGV 092100Z 24002KT 09/01 A3033 RMK A01 T00850011  RH  061%=      5-min Rain = 0
KSGV 092105Z 22002KT 08/01 A3033 RMK A01 T00790011  RH  063%=      5-min Rain = 0
KSGV 092110Z 20002KT 08/01 A3032 RMK A01 T00770011  RH  064%=      5-min Rain = 0
KSGV 092115Z 18002KT 08/01 A3032 RMK A01 T00790012  RH  063%=      5-min Rain = 0
KSGV 092120Z 18001KT 08/01 A3032 RMK A01 T00820013  RH  062%=      5-min Rain = 0
KSGV 092125Z 32003KT 09/02 A3032 RMK A01 T00850015  RH  062%=      5-min Rain = 0
KSGV 092130Z 01004KT 08/02 A3032 RMK A01 T00770015  RH  066%=      5-min Rain = 0
KSGV 092135Z 01003KT 08/02 A3032 RMK A01 T00750015  RH  067%=      5-min Rain = 0
KSGV 092140Z 04003KT 08/02 A3032 RMK A01 T00750015  RH  067%=      5-min Rain = 0
KSGV 092145Z 09003KT 08/02 A3032 RMK A01 T00750016  RH  067%=      5-min Rain = 0
KSGV 092150Z 09004KT 07/01 A3032 RMK A01 T00700013  RH  068%=      5-min Rain = 0
KSGV 092155Z 09003KT 07/02 A3032 RMK A01 T00710015  RH  069%=      5-min Rain = 0
KSGV 092200Z 12001KT 08/02 A3032 RMK A01 T00750015  RH  067%=      5-min Rain = 0
KSGV 092205Z 09001KT 08/01 A3032 RMK A01 T00770014  RH  065%=      5-min Rain = 0
KSGV 092210Z 35002KT 08/02 A3032 RMK A01 T00770016  RH  066%=      5-min Rain = 0
KSGV 092215Z 35001KT 08/02 A3032 RMK A01 T00770018  RH  067%=      5-min Rain = 0
KSGV 092220Z 03001KT 08/02 A3032 RMK A01 T00800017  RH  066%=      5-min Rain = 0
KSGV 092225Z 33001KT 08/02 A3032 RMK A01 T00780015  RH  066%=      5-min Rain = 0
KSGV 092230Z 04002KT 08/02 A3032 RMK A01 T00770016  RH  066%=      5-min Rain = 0
KSGV 092235Z 04002KT 07/02 A3032 RMK A01 T00710015  RH  069%=      5-min Rain = 0
KSGV 092240Z 05003KT 07/02 A3033 RMK A01 T00680016  RH  071%=      5-min Rain = 0
KSGV 092245Z 04003KT 07/02 A3033 RMK A01 T00660017  RH  072%=      5-min Rain = 0
KSGV 092250Z 05003KT 07/02 A3033 RMK A01 T00650016  RH  072%=      5-min Rain = 0
KSGV 092255Z 02004KT 07/02 A3033 RMK A01 T00650016  RH  072%=      5-min Rain = 0
KSGV 092300Z 01005KT 06/02 A3033 RMK A01 T00640016  RH  072%=      5-min Rain = 0
KSGV 092305Z 01005KT 06/02 A3033 RMK A01 T00620016  RH  073%=      5-min Rain = 0
KSGV 092310Z 02004KT 06/01 A3033 RMK A01 T00600014  RH  073%=      5-min Rain = 0
KSGV 092315Z 02005KT 06/01 A3033 RMK A01 T00590013  RH  074%=      5-min Rain = 0
KSGV 092320Z 02006KT 06/01 A3033 RMK A01 T00570013  RH  074%=      5-min Rain = 0
KSGV 092325Z 03005KT 05/01 A3034 RMK A01 T00540010  RH  074%=      5-min Rain = 0
KSGV 092330Z 03004KT 05/01 A3033 RMK A01 T00520008  RH  074%=      5-min Rain = 0
KSGV 092335Z 04004KT 05/01 A3033 RMK A01 T00500008  RH  075%=      5-min Rain = 0
KSGV 092340Z 04004KT 05/01 A3033 RMK A01 T00480008  RH  076%=      5-min Rain = 0
KSGV 092345Z 03004KT 05/01 A3033 RMK A01 T00460007  RH  077%=      5-min Rain = 0
KSGV 092350Z 04003KT 04/01 A3033 RMK A01 T00440008  RH  078%=      5-min Rain = 0
KSGV 092355Z 05003KT 04/01 A3033 RMK A01 T00410007  RH  079%=      5-min Rain = 0
KSGV 100000Z 05003KT 04/01 A3033 RMK A01 T00390007  RH  081%=      5-min Rain = 0
KSGV 100005Z 05004KT 04/01 A3033 RMK A01 T00370006  RH  081%=      5-min Rain = 0
KSGV 100010Z 05004KT 04/01 A3033 RMK A01 T00350005  RH  082%=      5-min Rain = 0
KSGV 100015Z 06003KT 03/00 A3033 RMK A01 T00330003  RH  082%=      5-min Rain = 0
KSGV 100020Z 06003KT 03/00 A3033 RMK A01 T00320002  RH  082%=      5-min Rain = 0
KSGV 100025Z 05003KT 03/00 A3034 RMK A01 T00310001  RH  082%=      5-min Rain = 0
KSGV 100030Z 05003KT 03/00 A3034 RMK A01 T00290000  RH  083%=      5-min Rain = 0
KSGV 100035Z 08002KT 03/00 A3034 RMK A01 T00270001  RH  084%=      5-min Rain = 0
KSGV 100040Z 07003KT 03/00 A3034 RMK A01 T002500-0  RH  084%=      5-min Rain = 0
KSGV 100045Z 07003KT 02/M00 A3034 RMK A01 T00241001  RH  084%=      5-min Rain = 0
KSGV 100050Z 06003KT 02/M00 A3035 RMK A01 T00231001  RH  085%=      5-min Rain = 0
KSGV 100055Z 05003KT 02/M00 A3035 RMK A01 T00221001  RH  086%=      5-min Rain = 0
KSGV 100100Z 06003KT 02/M00 A3035 RMK A01 T00221002  RH  086%=      5-min Rain = 0
KSGV 100105Z 06004KT 02/M00 A3035 RMK A01 T00211002  RH  085%=      5-min Rain = 0
KSGV 100110Z 06003KT 02/M00 A3035 RMK A01 T00211002  RH  086%=      5-min Rain = 0
KSGV 100115Z 04004KT 02/M00 A3035 RMK A01 T00201003  RH  086%=      5-min Rain = 0
KSGV 100120Z 04004KT 02/M00 A3035 RMK A01 T00181004  RH  086%=      5-min Rain = 0
KSGV 100125Z 04003KT 02/M01 A3036 RMK A01 T00161005  RH  087%=      5-min Rain = 0
KSGV 100130Z 05002KT 02/M01 A3036 RMK A01 T00151005  RH  088%=      5-min Rain = 0
KSGV 100135Z 05003KT 01/M01 A3036 RMK A01 T00141005  RH  088%=      5-min Rain = 0
KSGV 100140Z 04003KT 01/M01 A3036 RMK A01 T00131006  RH  088%=      5-min Rain = 0
KSGV 100145Z 07002KT 01/M01 A3036 RMK A01 T00121006  RH  089%=      5-min Rain = 0
KSGV 100150Z 11001KT 01/M01 A3036 RMK A01 T00111007  RH  088%=      5-min Rain = 0
KSGV 100155Z 17001KT 00/M02 A3036 RMK A01 T00041016  RH  088%=      5-min Rain = 0
KSGV 100200Z 17002KT M00/M02 A3036 RMK A01 T10041020  RH  090%=      5-min Rain = 0
KSGV 100205Z 17002KT M01/M02 A3036 RMK A01 T10091022  RH  092%=      5-min Rain = 0
KSGV 100210Z 17002KT M01/M02 A3036 RMK A01 T10061017  RH  094%=      5-min Rain = 0
KSGV 100215Z 18002KT M01/M02 A3036 RMK A01 T10081017  RH  094%=      5-min Rain = 0
KSGV 100220Z 18001KT M01/M02 A3036 RMK A01 T10071015  RH  095%=      5-min Rain = 0
KSGV 100225Z 18001KT M01/M02 A3035 RMK A01 T10071015  RH  096%=      5-min Rain = 0
KSGV 100230Z 00000KT M01/M02 A3036 RMK A01 T10081015  RH  096%=      5-min Rain = 0
KSGV 100235Z 00000KT M01/M02 A3036 RMK A01 T10121019  RH  096%=      5-min Rain = 0
KSGV 100240Z 04000KT M02/M02 A3036 RMK A01 T10161023  RH  096%=      5-min Rain = 0
KSGV 100245Z 04002KT M01/M02 A3037 RMK A01 T10141020  RH  097%=      5-min Rain = 0
KSGV 100250Z 04002KT M01/M02 A3037 RMK A01 T10111017  RH  097%=      5-min Rain = 0
KSGV 100255Z 04002KT M01/M02 A3037 RMK A01 T10111016  RH  097%=      5-min Rain = 0
KSGV 100300Z 02003KT M01/M01 A3037 RMK A01 T10091014  RH  097%=      5-min Rain = 0
KSGV 100305Z 02003KT M01/M02 A3037 RMK A01 T10121018  RH  097%=      5-min Rain = 0
KSGV 100310Z 01002KT M01/M02 A3037 RMK A01 T10131018  RH  097%=      5-min Rain = 0
KSGV 100315Z 01001KT M01/M02 A3037 RMK A01 T10131018  RH  097%=      5-min Rain = 0
KSGV 100320Z 01000KT M02/M02 A3037 RMK A01 T10161022  RH  097%=      5-min Rain = 0
KSGV 100325Z 33002KT M02/M02 A3037 RMK A01 T10171023  RH  097%=      5-min Rain = 0
KSGV 100330Z 33003KT M02/M02 A3037 RMK A01 T10171022  RH  097%=      5-min Rain = 0
KSGV 100335Z 32003KT M02/M02 A3038 RMK A01 T10171022  RH  097%=      5-min Rain = 0
KSGV 100340Z 31003KT M02/M02 A3038 RMK A01 T10181023  RH  097%=      5-min Rain = 0
KSGV 100345Z 31003KT M02/M02 A3038 RMK A01 T10191024  RH  097%=      5-min Rain = 0
KSGV 100350Z 31003KT M02/M03 A3038 RMK A01 T10211026  RH  097%=      5-min Rain = 0
KSGV 100355Z 31003KT M03/M03 A3038 RMK A01 T10251031  RH  096%=      5-min Rain = 0
KSGV 100400Z 30004KT M03/M03 A3038 RMK A01 T10261031  RH  097%=      5-min Rain = 0
KSGV 100405Z 30005KT M03/M03 A3038 RMK A01 T10251029  RH  097%=      5-min Rain = 0
KSGV 100410Z 29004KT M03/M03 A3038 RMK A01 T10261031  RH  097%=      5-min Rain = 0
KSGV 100415Z 30005KT M03/M03 A3039 RMK A01 T10281033  RH  097%=      5-min Rain = 0
KSGV 100420Z 30005KT M03/M03 A3039 RMK A01 T10261030  RH  097%=      5-min Rain = 0
KSGV 100425Z 29004KT M02/M03 A3039 RMK A01 T10241029  RH  097%=      5-min Rain = 0
KSGV 100430Z 29004KT M03/M03 A3039 RMK A01 T10251030  RH  097%=      5-min Rain = 0
KSGV 100435Z 28004KT M03/M03 A3039 RMK A01 T10281033  RH  097%=      5-min Rain = 0
KSGV 100440Z 28003KT M03/M03 A3039 RMK A01 T10291034  RH  097%=      5-min Rain = 0
KSGV 100445Z 28004KT M03/M03 A3039 RMK A01 T10281033  RH  097%=      5-min Rain = 0
KSGV 100450Z 28004KT M03/M03 A3039 RMK A01 T10271032  RH  097%=      5-min Rain = 0
KSGV 100455Z 28004KT M03/M03 A3039 RMK A01 T10261030  RH  097%=      5-min Rain = 0
KSGV 100500Z 28004KT M02/M03 A3039 RMK A01 T10241028  RH  098%=      5-min Rain = 0
KSGV 100505Z 29005KT M03/M03 A3039 RMK A01 T10251029  RH  097%=      5-min Rain = 0
KSGV 100510Z 29004KT M03/M03 A3039 RMK A01 T10271031  RH  097%=      5-min Rain = 0
KSGV 100515Z 30005KT M03/M03 A3039 RMK A01 T10251029  RH  098%=      5-min Rain = 0
KSGV 100520Z 30005KT M03/M03 A3039 RMK A01 T10261030  RH  097%=      5-min Rain = 0
KSGV 100525Z 30004KT M03/M03 A3039 RMK A01 T10261031  RH  097%=      5-min Rain = 0
KSGV 100530Z 29005KT M03/M03 A3039 RMK A01 T10281033  RH  097%=      5-min Rain = 0
KSGV 100535Z 29005KT M03/M03 A3039 RMK A01 T10281033  RH  097%=      5-min Rain = 0
KSGV 100540Z 29005KT M03/M03 A3039 RMK A01 T10291034  RH  097%=      5-min Rain = 0
KSGV 100545Z 29005KT M03/M03 A3039 RMK A01 T10291034  RH  097%=      5-min Rain = 0
KSGV 100550Z 30005KT M03/M03 A3039 RMK A01 T10291034  RH  097%=      5-min Rain = 0
KSGV 100555Z 29005KT M03/M03 A3039 RMK A01 T10271031  RH  097%=      5-min Rain = 0

Page generated in 0.0427 seconds.